createdAt,value
2022-10-19T00:01:23.330Z,14.11
2022-10-19T00:03:52.355Z,14.08
2022-10-19T00:06:19.706Z,14.10
2022-10-19T00:08:45.683Z,14.11
2022-10-19T00:11:12.052Z,14.12
2022-10-19T00:13:38.489Z,14.10
2022-10-19T00:16:12.209Z,14.02
2022-10-19T00:18:38.967Z,14.01
2022-10-19T00:21:06.583Z,14.00
2022-10-19T00:23:32.501Z,14.02
2022-10-19T00:25:58.577Z,14.02
2022-10-19T00:28:24.284Z,14.03
2022-10-19T00:30:50.219Z,14.04
2022-10-19T00:33:20.573Z,14.04
2022-10-19T00:35:50.362Z,13.98
2022-10-19T00:38:17.298Z,13.93
2022-10-19T00:40:44.005Z,13.92
2022-10-19T00:43:24.595Z,13.88
2022-10-19T00:45:50.776Z,13.88
2022-10-19T00:48:20.424Z,13.88
2022-10-19T00:50:48.224Z,13.89
2022-10-19T00:53:14.024Z,13.88
2022-10-19T00:55:40.956Z,13.89
2022-10-19T00:58:07.105Z,13.84
2022-10-19T01:00:33.786Z,13.82
2022-10-19T01:03:00.735Z,13.80
2022-10-19T01:05:26.850Z,13.79
2022-10-19T01:07:53.520Z,13.80
2022-10-19T01:10:26.980Z,13.83
2022-10-19T01:13:11.129Z,13.82
2022-10-19T01:15:46.732Z,13.80
2022-10-19T01:18:32.929Z,13.81
2022-10-19T01:21:04.914Z,13.82
2022-10-19T01:23:46.374Z,13.79
2022-10-19T01:26:45.837Z,13.74
2022-10-19T01:29:26.638Z,13.72
2022-10-19T01:32:04.505Z,13.73
2022-10-19T01:34:47.573Z,13.71
2022-10-19T01:37:31.471Z,13.65
2022-10-19T01:40:08.393Z,13.63
2022-10-19T01:42:34.056Z,13.64
2022-10-19T01:45:18.197Z,13.66
2022-10-19T01:47:55.276Z,13.67
2022-10-19T01:50:28.340Z,13.68
2022-10-19T01:52:55.408Z,13.65
2022-10-19T01:55:23.258Z,13.67
2022-10-19T01:57:57.570Z,13.64
2022-10-19T02:00:25.119Z,13.59
2022-10-19T02:02:53.366Z,13.59
2022-10-19T02:05:22.229Z,13.59
2022-10-19T02:07:54.038Z,13.52
2022-10-19T02:10:21.037Z,13.50
2022-10-19T02:12:47.608Z,13.54
2022-10-19T02:15:21.970Z,13.57
2022-10-19T02:17:51.789Z,13.56
2022-10-19T02:20:19.460Z,13.54
2022-10-19T02:22:45.320Z,13.53
2022-10-19T02:25:12.042Z,13.48
2022-10-19T02:27:41.370Z,13.47
2022-10-19T02:30:13.917Z,13.50
2022-10-19T02:32:40.213Z,13.50
2022-10-19T02:35:06.454Z,13.51
2022-10-19T02:37:33.112Z,13.47
2022-10-19T02:39:58.955Z,13.46
2022-10-19T02:42:33.662Z,13.48
2022-10-19T02:45:17.822Z,13.44
2022-10-19T02:47:49.097Z,13.39
2022-10-19T02:50:16.514Z,13.38
2022-10-19T02:52:42.138Z,13.34
2022-10-19T02:55:08.071Z,13.32
2022-10-19T02:57:34.174Z,13.33
2022-10-19T03:00:00.133Z,13.32
2022-10-19T03:02:25.902Z,13.33
2022-10-19T03:04:51.583Z,13.33
2022-10-19T03:07:19.356Z,13.32
2022-10-19T03:09:45.756Z,13.32
2022-10-19T03:12:12.759Z,13.33
2022-10-19T03:14:38.520Z,13.31
2022-10-19T03:17:04.508Z,13.30
2022-10-19T03:19:30.626Z,13.23
2022-10-19T03:21:56.404Z,13.17
2022-10-19T03:24:22.627Z,13.15
2022-10-19T03:26:48.394Z,13.16
2022-10-19T03:29:14.181Z,13.16
2022-10-19T03:31:39.941Z,13.16
2022-10-19T03:34:05.627Z,13.14
2022-10-19T03:36:34.406Z,13.18
2022-10-19T03:39:03.755Z,13.20
2022-10-19T03:41:32.424Z,13.21
2022-10-19T03:46:30.519Z,13.18
2022-10-19T03:48:56.202Z,13.13
2022-10-19T03:51:25.090Z,13.13
2022-10-19T03:53:55.632Z,13.13
2022-10-19T03:56:23.446Z,13.17
2022-10-19T03:58:50.859Z,13.17
2022-10-19T04:01:18.710Z,13.15
2022-10-19T04:03:44.794Z,13.14
2022-10-19T04:06:18.356Z,13.13
2022-10-19T04:08:48.408Z,13.11
2022-10-19T04:11:16.058Z,13.09
2022-10-19T04:13:41.736Z,13.10
2022-10-19T04:16:08.672Z,13.08
2022-10-19T04:18:34.316Z,13.08
2022-10-19T04:21:02.615Z,13.11
2022-10-19T04:23:35.340Z,13.13
2022-10-19T04:26:07.207Z,13.12
2022-10-19T04:28:34.067Z,13.12
2022-10-19T04:31:04.948Z,13.07
2022-10-19T04:33:31.582Z,13.01
2022-10-19T04:35:59.165Z,12.98
2022-10-19T04:38:25.046Z,12.97
2022-10-19T04:40:50.800Z,12.95
2022-10-19T04:43:16.508Z,12.95
2022-10-19T04:45:42.144Z,12.94
2022-10-19T04:48:07.800Z,12.87
2022-10-19T04:50:33.484Z,12.84
2022-10-19T04:52:59.272Z,12.78
2022-10-19T04:55:24.977Z,12.71
2022-10-19T04:57:50.844Z,12.74
2022-10-19T05:00:16.644Z,12.78
2022-10-19T05:02:46.318Z,12.79
2022-10-19T05:05:14.060Z,12.81
2022-10-19T05:07:40.443Z,12.79
2022-10-19T05:10:07.950Z,12.76
2022-10-19T05:12:35.262Z,12.78
2022-10-19T05:15:00.986Z,12.70
2022-10-19T05:17:30.735Z,12.69
2022-10-19T05:19:56.881Z,12.67
2022-10-19T05:22:22.733Z,12.67
2022-10-19T05:24:48.734Z,12.70
2022-10-19T05:27:14.384Z,12.73
2022-10-19T05:29:40.222Z,12.75
2022-10-19T05:32:05.896Z,12.80
2022-10-19T05:34:31.566Z,12.81
2022-10-19T05:36:57.318Z,12.81
2022-10-19T05:39:23.288Z,12.81
2022-10-19T05:41:49.434Z,12.85
2022-10-19T05:44:18.051Z,12.89
2022-10-19T05:46:43.779Z,12.95
2022-10-19T05:49:11.195Z,12.95
2022-10-19T05:51:37.567Z,12.96
2022-10-19T05:54:03.883Z,12.94
2022-10-19T05:56:31.249Z,12.94
2022-10-19T05:58:58.244Z,12.95
2022-10-19T06:01:25.075Z,13.00
2022-10-19T06:03:52.990Z,13.05
2022-10-19T06:06:19.666Z,13.11
2022-10-19T06:08:45.500Z,13.15
2022-10-19T06:11:16.655Z,13.17
2022-10-19T06:13:44.100Z,13.00
2022-10-19T06:16:11.301Z,12.93
2022-10-19T06:18:38.125Z,12.87
2022-10-19T06:21:09.516Z,12.88
2022-10-19T06:23:35.559Z,12.84
2022-10-19T06:26:03.606Z,12.84
2022-10-19T06:28:29.668Z,12.83
2022-10-19T06:30:57.341Z,12.67
2022-10-19T06:33:23.291Z,12.65
2022-10-19T06:35:49.024Z,12.58
2022-10-19T06:38:14.756Z,12.51
2022-10-19T06:40:40.430Z,12.48
2022-10-19T06:43:06.189Z,12.49
2022-10-19T06:45:35.754Z,12.56
2022-10-19T06:48:04.975Z,12.55
2022-10-19T06:50:33.414Z,12.65
2022-10-19T06:52:59.258Z,12.70
2022-10-19T06:55:25.507Z,12.58
2022-10-19T06:57:51.168Z,12.40
2022-10-19T07:00:16.938Z,12.39
2022-10-19T07:02:42.916Z,12.34
2022-10-19T07:05:09.346Z,12.36
2022-10-19T07:07:35.884Z,12.38
2022-10-19T07:10:02.320Z,12.50
2022-10-19T07:12:28.433Z,12.62
2022-10-19T07:14:54.902Z,12.73
2022-10-19T07:17:20.966Z,12.76
2022-10-19T07:19:46.732Z,12.83
2022-10-19T07:22:17.333Z,12.90
2022-10-19T07:24:46.544Z,12.95
2022-10-19T07:27:12.732Z,12.88
2022-10-19T07:29:38.570Z,12.93
2022-10-19T07:32:04.460Z,12.78
2022-10-19T07:34:30.111Z,12.83
2022-10-19T07:36:55.857Z,12.85
2022-10-19T07:39:21.731Z,12.88
2022-10-19T07:41:47.395Z,12.83
2022-10-19T07:44:15.745Z,12.66
2022-10-19T07:46:42.366Z,12.73
2022-10-19T07:49:13.059Z,12.82
2022-10-19T07:51:39.478Z,12.92
2022-10-19T07:54:05.827Z,12.97
2022-10-19T07:56:31.751Z,13.01
2022-10-19T07:58:59.189Z,13.08
2022-10-19T08:01:27.650Z,13.12
2022-10-19T08:06:40.683Z,13.23
2022-10-19T08:09:06.543Z,13.14
2022-10-19T08:11:34.460Z,13.04
2022-10-19T08:14:02.305Z,13.05
2022-10-19T08:16:36.715Z,13.06
2022-10-19T08:19:06.384Z,13.01
2022-10-19T08:21:32.384Z,12.74
2022-10-19T08:23:58.387Z,12.88
2022-10-19T08:26:25.144Z,12.94
2022-10-19T08:28:51.009Z,13.05
2022-10-19T08:31:21.801Z,12.98
2022-10-19T08:33:49.860Z,13.00
2022-10-19T08:36:16.297Z,13.05
2022-10-19T08:38:43.987Z,12.93
2022-10-19T08:41:25.336Z,12.90
2022-10-19T08:44:06.371Z,12.98
2022-10-19T08:47:02.704Z,12.98
2022-10-19T08:49:31.049Z,13.01
2022-10-19T08:52:19.339Z,13.09
2022-10-19T08:54:50.650Z,13.07
2022-10-19T08:57:38.565Z,12.88
2022-10-19T09:00:34.809Z,12.94
2022-10-19T09:03:22.992Z,12.77
2022-10-19T09:06:21.986Z,12.75
2022-10-19T09:08:51.012Z,12.76
2022-10-19T09:11:22.849Z,12.81
2022-10-19T09:14:04.640Z,12.74
2022-10-19T09:16:31.827Z,12.85
2022-10-19T09:18:57.730Z,12.96
2022-10-19T09:21:47.239Z,13.09
2022-10-19T09:24:29.210Z,13.12
2022-10-19T09:26:58.597Z,13.13
2022-10-19T09:29:31.229Z,13.11
2022-10-19T09:32:00.006Z,13.14
2022-10-19T09:34:31.096Z,13.12
2022-10-19T09:36:58.489Z,13.02
2022-10-19T09:39:27.073Z,13.06
2022-10-19T09:42:16.920Z,13.05
2022-10-19T09:44:42.921Z,13.23
2022-10-19T09:47:35.175Z,13.33
2022-10-19T09:50:23.562Z,13.46
2022-10-19T09:52:55.561Z,13.57
2022-10-19T09:55:36.161Z,13.61
2022-10-19T09:58:13.844Z,13.61
2022-10-19T10:00:51.240Z,13.68
2022-10-19T10:03:30.367Z,13.74
2022-10-19T10:05:58.998Z,13.73
2022-10-19T10:08:32.368Z,13.73
2022-10-19T10:10:57.953Z,13.70
2022-10-19T10:13:26.814Z,13.88
2022-10-19T10:15:58.624Z,14.06
2022-10-19T10:18:27.077Z,14.20
2022-10-19T10:21:00.471Z,14.30
2022-10-19T10:23:28.350Z,14.29
2022-10-19T10:26:00.028Z,14.25
2022-10-19T10:28:27.842Z,14.28
2022-10-19T10:31:05.496Z,14.35
2022-10-19T10:33:50.411Z,14.42
2022-10-19T10:36:17.406Z,14.31
2022-10-19T10:38:51.133Z,14.34
2022-10-19T10:41:22.345Z,14.39
2022-10-19T10:44:00.771Z,14.43
2022-10-19T10:46:36.424Z,14.40
2022-10-19T10:49:07.145Z,14.23
2022-10-19T10:51:42.093Z,14.21
2022-10-19T10:54:22.645Z,14.22
2022-10-19T10:57:15.943Z,14.29
2022-10-19T11:00:07.420Z,14.21
2022-10-19T11:02:40.467Z,14.43
2022-10-19T11:05:26.504Z,14.51
2022-10-19T11:08:06.298Z,14.65
2022-10-19T11:10:40.421Z,14.55
2022-10-19T11:13:17.229Z,14.52
2022-10-19T11:16:01.413Z,14.55
2022-10-19T11:18:33.749Z,14.60
2022-10-19T11:21:18.339Z,14.73
2022-10-19T11:23:51.295Z,14.76
2022-10-19T11:27:12.675Z,14.74
2022-10-19T11:30:01.607Z,14.79
2022-10-19T11:32:47.938Z,14.79
2022-10-19T11:35:19.247Z,14.85
2022-10-19T11:38:18.330Z,14.80
2022-10-19T11:41:13.268Z,14.93
2022-10-19T11:43:57.214Z,14.99
2022-10-19T11:46:38.079Z,15.14
2022-10-19T11:49:25.816Z,15.42
2022-10-19T11:52:23.953Z,15.67
2022-10-19T11:55:02.904Z,15.94
2022-10-19T11:57:44.206Z,15.91
2022-10-19T12:00:27.235Z,15.98
2022-10-19T12:03:19.497Z,16.07
2022-10-19T12:06:12.474Z,15.90
2022-10-19T12:08:57.202Z,15.89
2022-10-19T12:11:50.020Z,15.94
2022-10-19T12:14:21.280Z,16.10
2022-10-19T12:16:52.372Z,16.06
2022-10-19T12:19:23.462Z,16.10
2022-10-19T12:21:50.906Z,16.04
2022-10-19T12:24:21.848Z,16.03
2022-10-19T12:26:51.056Z,15.98
2022-10-19T12:29:26.766Z,15.97
2022-10-19T12:31:54.225Z,16.20
2022-10-19T12:34:25.781Z,16.42
2022-10-19T12:37:02.480Z,16.61
2022-10-19T12:39:46.006Z,16.83
2022-10-19T12:42:45.985Z,17.01
2022-10-19T12:45:29.470Z,17.13
2022-10-19T12:48:07.540Z,17.14
2022-10-19T12:50:59.909Z,17.27
2022-10-19T12:53:37.507Z,17.42
2022-10-19T12:56:09.275Z,17.60
2022-10-19T12:58:45.060Z,17.72
2022-10-19T13:01:19.770Z,17.87
2022-10-19T13:03:48.256Z,17.93
2022-10-19T13:06:23.190Z,17.89
2022-10-19T13:08:57.853Z,17.90
2022-10-19T13:11:23.861Z,17.80
2022-10-19T13:14:06.112Z,17.50
2022-10-19T13:16:40.529Z,17.36
2022-10-19T13:19:11.916Z,17.10
2022-10-19T13:21:49.424Z,16.85
2022-10-19T13:24:24.039Z,16.71
2022-10-19T13:27:15.487Z,16.40
2022-10-19T13:29:44.039Z,16.37
2022-10-19T13:32:34.318Z,16.38
2022-10-19T13:35:28.023Z,16.32
2022-10-19T13:38:15.310Z,16.35
2022-10-19T13:41:12.540Z,16.35
2022-10-19T13:43:42.668Z,16.41
2022-10-19T13:46:10.177Z,16.49
2022-10-19T13:49:17.966Z,16.62
2022-10-19T13:52:02.350Z,16.75
2022-10-19T13:54:49.677Z,16.91
2022-10-19T13:57:43.387Z,17.05
2022-10-19T14:00:20.780Z,17.07
2022-10-19T14:03:12.225Z,17.06
2022-10-19T14:05:46.552Z,16.84
2022-10-19T14:08:21.287Z,16.63
2022-10-19T14:11:01.023Z,16.45
2022-10-19T14:13:27.731Z,16.38
2022-10-19T14:15:56.322Z,16.39
2022-10-19T14:18:26.429Z,16.45
2022-10-19T14:20:59.608Z,16.41
2022-10-19T14:23:28.138Z,16.46
2022-10-19T14:26:01.221Z,16.50
2022-10-19T14:28:28.055Z,16.55
2022-10-19T14:31:02.636Z,16.54
2022-10-19T14:33:32.420Z,16.55
2022-10-19T14:35:58.501Z,16.52
2022-10-19T14:38:39.405Z,16.45
2022-10-19T14:41:16.551Z,16.32
2022-10-19T14:43:42.505Z,16.27
2022-10-19T14:46:15.129Z,16.30
2022-10-19T14:48:49.570Z,16.29
2022-10-19T14:51:27.914Z,16.30
2022-10-19T14:54:23.976Z,16.24
2022-10-19T14:56:55.321Z,16.18
2022-10-19T14:59:27.485Z,16.14
2022-10-19T15:01:56.258Z,16.05
2022-10-19T15:04:27.037Z,16.05
2022-10-19T15:06:54.319Z,16.03
2022-10-19T15:09:37.026Z,16.01
2022-10-19T15:12:15.932Z,16.02
2022-10-19T15:14:42.386Z,16.03
2022-10-19T15:17:24.066Z,15.99
2022-10-19T15:19:49.741Z,15.99
2022-10-19T15:22:30.449Z,15.89
2022-10-19T15:24:57.928Z,15.76
2022-10-19T15:27:37.217Z,15.67
2022-10-19T15:30:04.738Z,15.61
2022-10-19T15:32:34.816Z,15.58
2022-10-19T15:35:15.660Z,15.56
2022-10-19T15:37:43.637Z,15.44
2022-10-19T15:40:12.629Z,15.40
2022-10-19T15:42:41.189Z,15.36
2022-10-19T15:45:33.734Z,15.27
2022-10-19T15:48:20.942Z,15.25
2022-10-19T15:50:48.060Z,15.21
2022-10-19T15:53:14.704Z,15.11
2022-10-19T15:55:40.486Z,15.05
2022-10-19T15:58:08.360Z,15.01
2022-10-19T16:00:34.069Z,14.96
2022-10-19T16:02:59.822Z,14.89
2022-10-19T16:05:25.502Z,14.81
2022-10-19T16:07:51.192Z,14.74
2022-10-19T16:10:20.927Z,14.68
2022-10-19T16:12:46.579Z,14.60
2022-10-19T16:15:21.390Z,14.52
2022-10-19T16:17:50.079Z,14.42
2022-10-19T16:20:16.584Z,14.33
2022-10-19T16:22:43.095Z,14.23
2022-10-19T16:25:10.911Z,14.12
2022-10-19T16:27:37.060Z,14.04
2022-10-19T16:30:04.222Z,13.97
2022-10-19T16:32:29.985Z,13.89
2022-10-19T16:34:55.827Z,13.82
2022-10-19T16:37:21.587Z,13.74
2022-10-19T16:39:47.266Z,13.62
2022-10-19T16:42:13.009Z,13.51
2022-10-19T16:44:38.756Z,13.43
2022-10-19T16:47:05.093Z,13.37
2022-10-19T16:49:31.117Z,13.32
2022-10-19T16:51:57.737Z,13.28
2022-10-19T16:54:26.074Z,13.21
2022-10-19T16:56:51.932Z,13.16
2022-10-19T16:59:18.320Z,13.11
2022-10-19T17:01:45.230Z,13.05
2022-10-19T17:04:12.484Z,13.00
2022-10-19T17:06:38.295Z,12.92
2022-10-19T17:11:50.538Z,12.82
2022-10-19T17:14:16.447Z,12.79
2022-10-19T17:16:42.180Z,12.74
2022-10-19T17:19:09.696Z,12.69
2022-10-19T17:21:37.780Z,12.64
2022-10-19T17:24:06.413Z,12.60
2022-10-19T17:26:37.766Z,12.59
2022-10-19T17:29:04.752Z,12.52
2022-10-19T17:31:30.724Z,12.48
2022-10-19T17:33:57.217Z,12.43
2022-10-19T17:36:31.129Z,12.38
2022-10-19T17:39:03.197Z,12.31
2022-10-19T17:41:29.724Z,12.26
2022-10-19T17:43:56.128Z,12.23
2022-10-19T17:46:25.586Z,12.19
2022-10-19T17:48:51.275Z,12.17
2022-10-19T17:51:20.678Z,12.15
2022-10-19T17:53:49.670Z,12.15
2022-10-19T17:56:18.186Z,12.12
2022-10-19T17:58:44.543Z,12.10
2022-10-19T18:01:15.988Z,12.09
2022-10-19T18:03:41.766Z,12.09
2022-10-19T18:06:13.103Z,12.08
2022-10-19T18:08:41.884Z,12.07
2022-10-19T18:11:11.191Z,12.02
2022-10-19T18:16:12.077Z,11.90
2022-10-19T18:18:39.801Z,11.84
2022-10-19T18:21:10.950Z,11.77
2022-10-19T18:23:37.370Z,11.69
2022-10-19T18:26:09.158Z,11.63
2022-10-19T18:28:35.439Z,11.54
2022-10-19T18:31:06.363Z,11.48
2022-10-19T18:33:32.608Z,11.40
2022-10-19T18:35:58.411Z,11.32
2022-10-19T18:38:24.179Z,11.24
2022-10-19T18:40:50.070Z,11.17
2022-10-19T18:43:15.786Z,11.10
2022-10-19T18:45:53.989Z,11.03
2022-10-19T18:48:20.445Z,10.98
2022-10-19T18:50:47.107Z,10.97
2022-10-19T18:53:13.885Z,10.93
2022-10-19T18:55:40.414Z,10.90
2022-10-19T18:58:07.206Z,10.85
2022-10-19T19:00:33.268Z,10.79
2022-10-19T19:02:59.130Z,10.74
2022-10-19T19:05:24.885Z,10.66
2022-10-19T19:07:50.856Z,10.61
2022-10-19T19:10:17.046Z,10.55
2022-10-19T19:12:43.308Z,10.51
2022-10-19T19:15:10.436Z,10.46
2022-10-19T19:17:37.490Z,10.40
2022-10-19T19:20:04.706Z,10.35
2022-10-19T19:22:30.459Z,10.30
2022-10-19T19:24:56.528Z,10.25
2022-10-19T19:27:26.164Z,10.22
2022-10-19T19:29:56.200Z,10.18
2022-10-19T19:32:21.998Z,10.13
2022-10-19T19:34:52.432Z,10.06
2022-10-19T19:37:20.412Z,10.01
2022-10-19T19:39:46.077Z,9.95
2022-10-19T19:42:12.402Z,9.90
2022-10-19T19:44:38.112Z,9.88
2022-10-19T19:47:03.781Z,9.84
2022-10-19T19:49:29.521Z,9.82
2022-10-19T19:51:55.185Z,9.78
2022-10-19T19:54:21.918Z,9.74
2022-10-19T19:56:51.953Z,9.70
2022-10-19T19:59:17.998Z,9.64
2022-10-19T20:01:44.122Z,9.59
2022-10-19T20:04:10.554Z,9.56
2022-10-19T20:06:38.283Z,9.52
2022-10-19T20:09:06.360Z,9.47
2022-10-19T20:11:32.465Z,9.44
2022-10-19T20:13:58.236Z,9.40
2022-10-19T20:16:32.723Z,9.38
2022-10-19T20:19:03.816Z,9.34
2022-10-19T20:21:30.953Z,9.31
2022-10-19T20:23:56.913Z,9.29
2022-10-19T20:26:23.871Z,9.23
2022-10-19T20:28:50.290Z,9.18
2022-10-19T20:31:16.117Z,9.16
2022-10-19T20:33:43.148Z,9.14
2022-10-19T20:36:16.939Z,9.11
2022-10-19T20:38:49.069Z,9.05
2022-10-19T20:41:18.271Z,9.01
2022-10-19T20:43:44.090Z,8.98
2022-10-19T20:46:16.923Z,8.92
2022-10-19T20:48:43.864Z,8.88
2022-10-19T20:51:32.046Z,8.83
2022-10-19T20:53:59.913Z,8.79
2022-10-19T20:56:26.734Z,8.71
2022-10-19T20:58:57.186Z,8.65
2022-10-19T21:01:23.520Z,8.58
2022-10-19T21:03:54.811Z,8.53
2022-10-19T21:06:22.866Z,8.51
2022-10-19T21:08:49.388Z,8.46
2022-10-19T21:11:24.533Z,8.41
2022-10-19T21:13:55.505Z,8.37
2022-10-19T21:16:22.619Z,8.30
2022-10-19T21:18:49.953Z,8.26
2022-10-19T21:21:44.843Z,8.20
2022-10-19T21:24:31.724Z,8.12
2022-10-19T21:27:00.566Z,8.07
2022-10-19T21:29:26.648Z,7.98
2022-10-19T21:31:52.874Z,7.91
2022-10-19T21:34:29.356Z,7.85
2022-10-19T21:36:55.252Z,7.80
2022-10-19T21:39:21.483Z,7.78
2022-10-19T21:41:48.089Z,7.74
2022-10-19T21:44:15.449Z,7.73
2022-10-19T21:46:42.803Z,7.70
2022-10-19T21:49:11.282Z,7.65
2022-10-19T21:51:48.012Z,7.59
2022-10-19T21:54:18.828Z,7.56
2022-10-19T21:56:45.873Z,7.51
2022-10-19T21:59:12.239Z,7.47
2022-10-19T22:01:41.068Z,7.42
2022-10-19T22:04:11.631Z,7.36
2022-10-19T22:06:37.342Z,7.33
2022-10-19T22:09:06.119Z,7.29
2022-10-19T22:11:32.053Z,7.27
2022-10-19T22:13:59.765Z,7.24
2022-10-19T22:16:26.514Z,7.20
2022-10-19T22:18:52.621Z,7.17
2022-10-19T22:21:21.134Z,7.15
2022-10-19T22:23:55.818Z,7.11
2022-10-19T22:26:24.534Z,7.09
2022-10-19T22:28:50.341Z,7.09
2022-10-19T22:31:16.103Z,7.08
2022-10-19T22:33:41.790Z,7.06
2022-10-19T22:36:12.656Z,7.06
2022-10-19T22:38:38.936Z,7.05
2022-10-19T22:41:05.162Z,7.08
2022-10-19T22:43:30.969Z,7.08
2022-10-19T22:45:56.908Z,7.08
2022-10-19T22:48:22.758Z,7.08
2022-10-19T22:50:52.486Z,7.06
2022-10-19T22:53:18.406Z,7.06
2022-10-19T22:55:44.109Z,7.04
2022-10-19T23:00:40.717Z,7.02
2022-10-19T23:03:06.467Z,6.98
2022-10-19T23:05:32.235Z,6.95
2022-10-19T23:07:58.090Z,6.92
2022-10-19T23:10:23.879Z,6.87
2022-10-19T23:12:50.920Z,6.83
2022-10-19T23:15:17.422Z,6.80
2022-10-19T23:17:43.169Z,6.79
2022-10-19T23:20:09.690Z,6.79
2022-10-19T23:22:35.463Z,6.78
2022-10-19T23:25:07.445Z,6.78
2022-10-19T23:27:33.824Z,6.79
2022-10-19T23:29:59.913Z,6.79
2022-10-19T23:32:25.676Z,6.76
2022-10-19T23:34:51.421Z,6.72
2022-10-19T23:37:17.459Z,6.67
2022-10-19T23:39:43.196Z,6.62
2022-10-19T23:42:08.982Z,6.61
2022-10-19T23:44:34.723Z,6.62
2022-10-19T23:47:00.800Z,6.62
2022-10-19T23:49:26.595Z,6.62
2022-10-19T23:51:52.340Z,6.62
2022-10-19T23:54:18.013Z,6.61
2022-10-19T23:56:43.807Z,6.60
2022-10-19T23:59:09.897Z,6.60
